LATI/TIA METAR and TAF weather

Enter ICAO airport designator
Station Type Date Time Source
LATI METAR 2019/12/13 16:50 UTC NOAA

LATI 131650Z 14007KT CAVOK 11/05 Q0997 NOSIG


Station Type Date Time Source
LATI Decoded METAR 2019/12/13 16:50 UTC NOAA

Tirana, Albania (LATI) 41-20N 019-47E 90M
Dec 13, 2019 - 11:50 AM EST / 2019.12.13 1650 UTC
Wind: from the SE (140 degrees) at 8 MPH (7 KT):0
Visibility: greater than 7 mile(s):0
Temperature: 51 F (11 C)
Dew Point: 41 F (5 C)
Relative Humidity: 66%
Pressure (altimeter): 29.44 in. Hg (0997 hPa)
ob: LATI 131650Z 14007KT CAVOK 11/05 Q0997 NOSIG
cycle: 17

Station Type Date Time Source
LATI TAF 2019/12/13 12:40 UTC NOAA

TAF LATI 131100Z 1312/1412 17010KT 9999 FEW050 BKN100 TX16/1412Z TN05/1406Z
TEMPO 1316/1407 19015G30KT
TEMPO 1322/1407 4000 SHRA SCT020CB BKN040 OVC060 PROB30 1403/1407 3000 +TSRA
BECMG 1409/1412 35014KT

Example: see airport list